Terminal Aerodrome Forecast
Issued by NWS Austin/San Antonio, TX

Home | Current Version | Previous Version | Text Only | Print | Product List | Glossary On
Versions: 1 2 3 4 5 6 7 8 9 10 11 12 13 14 15 16 17 18 19 20 21 22
790
FTUS44 KEWX 241330 AAA
TAFAUS
TAF AMD
KAUS 241330Z 2414/2518 06012KT P6SM -SHRA SCT006 BKN015
     FM241600 VRB03KT P6SM VCSH BKN035
     FM250500 06007KT P6SM VCSH BKN012
     FM251600 VRB03KT P6SM BKN035=

USA.gov is the U.S. government's official web portal to all federal, state and local government web resources and services.